createdAt,value
2018-05-18T00:02:12.693Z,20.17
2018-05-18T00:04:44.951Z,20.15
2018-05-18T00:07:18.882Z,19.95
2018-05-18T00:09:51.542Z,19.85
2018-05-18T00:12:22.989Z,19.96
2018-05-18T00:14:54.310Z,19.95
2018-05-18T00:17:25.954Z,20.07
2018-05-18T00:19:57.424Z,20.05
2018-05-18T00:22:29.987Z,19.79
2018-05-18T00:25:01.288Z,19.70
2018-05-18T00:27:35.492Z,19.61
2018-05-18T00:30:06.855Z,19.58
2018-05-18T00:32:38.211Z,19.34
2018-05-18T00:35:09.782Z,19.35
2018-05-18T00:37:41.250Z,19.10
2018-05-18T00:40:13.434Z,18.88
2018-05-18T00:42:44.958Z,18.83
2018-05-18T00:45:17.178Z,18.62
2018-05-18T00:47:50.396Z,18.56
2018-05-18T00:50:22.610Z,18.47
2018-05-18T00:52:54.018Z,18.42
2018-05-18T00:55:40.028Z,18.44
2018-05-18T00:58:11.298Z,18.52
2018-05-18T01:00:43.790Z,18.37
2018-05-18T01:03:15.206Z,18.45
2018-05-18T01:05:48.509Z,18.47
2018-05-18T01:08:19.896Z,18.26
2018-05-18T01:10:51.639Z,18.31
2018-05-18T01:13:24.273Z,18.15
2018-05-18T01:15:56.612Z,18.10
2018-05-18T01:18:28.389Z,18.08
2018-05-18T01:21:00.316Z,18.09
2018-05-18T01:36:44.326Z,18.52
2018-05-18T01:41:55.809Z,18.37
2018-05-18T01:44:27.387Z,18.26
2018-05-18T01:46:58.750Z,18.28
2018-05-18T01:49:30.278Z,18.11
2018-05-18T01:52:01.660Z,18.05
2018-05-18T01:54:33.370Z,18.10
2018-05-18T01:57:05.650Z,17.99
2018-05-18T01:59:38.129Z,17.98
2018-05-18T02:02:09.714Z,18.12
2018-05-18T02:04:41.097Z,18.08
2018-05-18T02:07:12.389Z,17.99
2018-05-18T02:09:45.354Z,18.25
2018-05-18T02:12:17.866Z,18.19
2018-05-18T02:14:51.129Z,17.98
2018-05-18T02:17:22.313Z,17.61
2018-05-18T02:19:53.839Z,17.63
2018-05-18T02:22:25.432Z,17.63
2018-05-18T02:24:57.608Z,17.66
2018-05-18T02:27:29.549Z,17.69
2018-05-18T02:30:00.870Z,17.87
2018-05-18T02:32:31.961Z,17.69
2018-05-18T02:35:04.739Z,17.71
2018-05-18T02:37:36.042Z,17.36
2018-05-18T02:40:07.456Z,17.43
2018-05-18T02:42:39.041Z,17.57
2018-05-18T02:45:10.376Z,17.73
2018-05-18T02:47:43.939Z,17.62
2018-05-18T02:50:16.109Z,17.40
2018-05-18T02:52:49.223Z,17.48
2018-05-18T02:55:20.590Z,17.50
2018-05-18T02:57:52.485Z,17.29
2018-05-18T03:00:24.994Z,17.35
2018-05-18T03:02:56.278Z,17.33
2018-05-18T03:05:28.534Z,17.34
2018-05-18T03:07:59.892Z,17.33
2018-05-18T03:10:32.266Z,17.28
2018-05-18T03:13:03.841Z,17.26
2018-05-18T03:15:35.142Z,17.27
2018-05-18T03:18:06.836Z,17.32
2018-05-18T03:20:39.218Z,17.30
2018-05-18T03:23:11.915Z,17.27
2018-05-18T03:25:43.044Z,17.22
2018-05-18T03:28:14.410Z,17.16
2018-05-18T03:30:47.090Z,17.26
2018-05-18T03:33:21.045Z,17.16
2018-05-18T03:35:53.736Z,17.13
2018-05-18T03:38:25.883Z,17.12
2018-05-18T03:40:57.335Z,17.03
2018-05-18T03:43:28.677Z,17.12
2018-05-18T03:46:00.921Z,17.11
2018-05-18T03:48:33.406Z,17.14
2018-05-18T03:51:05.657Z,17.16
2018-05-18T03:53:37.135Z,17.18
2018-05-18T03:56:10.677Z,17.14
2018-05-18T03:58:42.550Z,17.22
2018-05-18T04:01:23.736Z,17.48
2018-05-18T04:06:09.609Z,17.64
2018-05-18T04:08:41.740Z,17.84
2018-05-18T04:11:13.205Z,17.95
2018-05-18T04:13:44.901Z,18.16
2018-05-18T04:16:16.900Z,18.33
2018-05-18T04:18:48.909Z,18.49
2018-05-18T04:21:20.473Z,18.74
2018-05-18T04:23:52.538Z,19.20
2018-05-18T04:26:24.762Z,19.54
2018-05-18T04:28:56.173Z,20.02
2018-05-18T04:31:27.695Z,20.28
2018-05-18T04:33:58.965Z,20.43
2018-05-18T04:36:30.439Z,20.60
2018-05-18T04:39:01.708Z,20.92
2018-05-18T04:41:33.774Z,21.31
2018-05-18T04:44:05.079Z,21.57
2018-05-18T04:46:36.530Z,21.91
2018-05-18T04:49:07.907Z,22.25
2018-05-18T04:51:39.249Z,22.40
2018-05-18T04:54:10.606Z,22.68
2018-05-18T04:56:41.954Z,22.89
2018-05-18T04:59:13.186Z,22.90
2018-05-18T05:01:45.387Z,22.84
2018-05-18T05:04:16.677Z,22.82
2018-05-18T05:06:48.906Z,22.48
2018-05-18T05:09:20.206Z,22.39
2018-05-18T05:11:51.544Z,22.51
2018-05-18T05:14:22.993Z,22.65
2018-05-18T05:16:54.607Z,22.94
2018-05-18T05:19:25.957Z,23.60
2018-05-18T05:21:57.249Z,24.17
2018-05-18T05:24:28.608Z,24.68
2018-05-18T05:26:59.917Z,25.02
2018-05-18T05:29:31.230Z,25.27
2018-05-18T05:32:02.854Z,25.55
2018-05-18T05:34:34.203Z,25.39
2018-05-18T05:37:06.212Z,25.27
2018-05-18T05:39:37.702Z,25.51
2018-05-18T05:42:08.965Z,25.74
2018-05-18T05:44:41.209Z,25.97
2018-05-18T05:47:13.607Z,25.48
2018-05-18T05:49:46.153Z,24.97
2018-05-18T05:52:17.526Z,24.68
2018-05-18T05:54:49.706Z,24.95
2018-05-18T05:57:20.078Z,24.69
2018-05-18T05:59:51.409Z,24.28
2018-05-18T06:02:23.142Z,23.84
2018-05-18T06:04:54.210Z,23.56
2018-05-18T06:07:24.677Z,23.55
2018-05-18T06:09:56.231Z,23.14
2018-05-18T06:12:28.882Z,22.78
2018-05-18T06:14:59.959Z,22.43
2018-05-18T06:17:32.715Z,22.13
2018-05-18T06:20:03.293Z,22.01
2018-05-18T06:22:33.790Z,21.94
2018-05-18T06:25:06.169Z,21.89
2018-05-18T06:27:38.613Z,21.95
2018-05-18T06:30:09.390Z,22.17
2018-05-18T06:32:39.870Z,22.31
2018-05-18T06:35:12.282Z,22.28
2018-05-18T06:37:44.777Z,22.17
2018-05-18T06:40:15.218Z,22.13
2018-05-18T06:42:47.718Z,22.22
2018-05-18T06:45:20.045Z,22.51
2018-05-18T06:47:51.293Z,22.77
2018-05-18T06:50:23.665Z,22.66
2018-05-18T06:52:54.115Z,22.80
2018-05-18T06:55:24.794Z,23.09
2018-05-18T06:57:56.170Z,23.25
2018-05-18T07:00:28.638Z,23.47
2018-05-18T07:03:00.115Z,23.51
2018-05-18T07:05:31.460Z,23.54
2018-05-18T07:08:03.724Z,23.66
2018-05-18T07:10:36.177Z,23.50
2018-05-18T07:13:09.145Z,23.56
2018-05-18T07:15:39.870Z,23.69
2018-05-18T07:18:12.139Z,23.91
2018-05-18T07:20:43.536Z,23.93
2018-05-18T07:23:14.930Z,24.07
2018-05-18T07:25:47.713Z,24.48
2018-05-18T07:28:19.083Z,24.64
2018-05-18T07:30:51.561Z,24.66
2018-05-18T07:33:22.989Z,24.47
2018-05-18T07:35:55.447Z,24.61
2018-05-18T07:38:28.309Z,25.14
2018-05-18T07:41:01.421Z,25.36
2018-05-18T07:43:32.851Z,25.32
2018-05-18T07:46:04.607Z,25.40
2018-05-18T07:48:35.141Z,25.77
2018-05-18T07:51:08.597Z,25.71
2018-05-18T07:53:39.219Z,25.55
2018-05-18T07:56:11.033Z,25.79
2018-05-18T07:58:43.252Z,25.96
2018-05-18T08:01:14.725Z,26.08
2018-05-18T08:03:45.537Z,26.25
2018-05-18T08:06:16.217Z,26.41
2018-05-18T08:08:46.783Z,26.04
2018-05-18T08:11:17.636Z,25.41
2018-05-18T08:13:50.194Z,25.12
2018-05-18T08:16:20.752Z,24.87
2018-05-18T08:18:51.829Z,24.79
2018-05-18T08:21:22.341Z,24.82
2018-05-18T08:23:52.750Z,24.58
2018-05-18T08:26:23.475Z,24.08
2018-05-18T08:29:57.907Z,24.15
2018-05-18T08:32:29.141Z,24.39
2018-05-18T08:34:59.771Z,25.09
2018-05-18T08:37:30.301Z,25.00
2018-05-18T08:40:01.177Z,24.77
2018-05-18T08:42:33.633Z,24.99
2018-05-18T08:45:08.979Z,25.35
2018-05-18T08:47:39.769Z,25.71
2018-05-18T08:50:10.407Z,25.78
2018-05-18T08:52:41.009Z,25.49
2018-05-18T08:55:11.646Z,25.35
2018-05-18T08:57:42.533Z,25.49
2018-05-18T09:00:16.565Z,25.52
2018-05-18T09:03:21.089Z,25.60
2018-05-18T09:06:10.257Z,25.72
2018-05-18T09:08:40.890Z,25.42
2018-05-18T09:11:12.573Z,24.89
2018-05-18T09:13:45.020Z,24.30
2018-05-18T09:16:15.610Z,24.25
2018-05-18T09:18:46.273Z,24.41
2018-05-18T09:21:17.541Z,24.60
2018-05-18T09:23:49.496Z,24.92
2018-05-18T09:26:21.950Z,25.29
2018-05-18T09:28:54.547Z,25.24
2018-05-18T09:31:26.253Z,25.25
2018-05-18T09:33:57.238Z,25.43
2018-05-18T09:36:27.917Z,25.46
2018-05-18T09:38:58.717Z,25.47
2018-05-18T09:41:30.787Z,25.25
2018-05-18T09:44:01.585Z,24.72
2018-05-18T09:46:31.997Z,24.55
2018-05-18T09:49:03.562Z,24.47
2018-05-18T09:51:36.625Z,24.36
2018-05-18T09:54:10.497Z,24.27
2018-05-18T09:56:42.868Z,24.43
2018-05-18T09:59:15.173Z,24.82
2018-05-18T10:04:28.809Z,25.37
2018-05-18T10:07:00.568Z,25.58
2018-05-18T10:09:33.390Z,26.09
2018-05-18T10:12:05.659Z,26.47
2018-05-18T10:14:37.954Z,26.82
2018-05-18T10:17:10.514Z,26.96
2018-05-18T10:19:44.709Z,27.35
2018-05-18T10:22:17.842Z,27.58
2018-05-18T10:24:48.375Z,27.71
2018-05-18T10:27:20.798Z,28.00
2018-05-18T10:29:53.592Z,28.07
2018-05-18T10:32:26.439Z,28.11
2018-05-18T10:34:58.962Z,28.21
2018-05-18T10:37:29.652Z,28.06
2018-05-18T10:40:00.636Z,28.22
2018-05-18T10:42:32.909Z,28.27
2018-05-18T10:45:06.270Z,28.32
2018-05-18T10:47:37.848Z,28.17
2018-05-18T10:50:09.353Z,28.14
2018-05-18T10:52:46.058Z,28.21
2018-05-18T10:55:22.448Z,28.01
2018-05-18T10:57:55.404Z,28.11
2018-05-18T11:00:26.283Z,28.06
2018-05-18T11:02:58.282Z,27.99
2018-05-18T11:05:28.733Z,27.96
2018-05-18T11:07:59.849Z,28.15
2018-05-18T11:10:30.411Z,28.22
2018-05-18T11:13:01.331Z,28.40
2018-05-18T11:15:32.237Z,28.87
2018-05-18T11:18:04.623Z,29.01
2018-05-18T11:20:37.078Z,28.93
2018-05-18T11:23:07.956Z,28.74
2018-05-18T11:25:40.431Z,28.59
2018-05-18T11:28:13.184Z,28.24
2018-05-18T11:30:43.887Z,28.77
2018-05-18T11:33:16.445Z,29.07
2018-05-18T11:35:46.948Z,29.22
2018-05-18T11:38:21.393Z,29.11
2018-05-18T11:40:53.715Z,28.88
2018-05-18T11:43:26.033Z,28.81
2018-05-18T11:45:58.701Z,28.85
2018-05-18T11:48:29.208Z,28.96
2018-05-18T11:51:00.098Z,28.84
2018-05-18T11:53:32.339Z,28.43
2018-05-18T11:56:05.005Z,27.87
2018-05-18T11:58:35.471Z,27.47
2018-05-18T12:01:06.580Z,27.71
2018-05-18T12:03:39.230Z,27.40
2018-05-18T12:06:09.825Z,27.41
2018-05-18T12:08:42.188Z,27.13
2018-05-18T12:11:15.333Z,27.19
2018-05-18T12:13:45.784Z,27.27
2018-05-18T12:16:18.372Z,27.14
2018-05-18T12:18:49.593Z,27.04
2018-05-18T12:21:20.096Z,27.01
2018-05-18T12:23:50.933Z,27.03
2018-05-18T12:26:24.286Z,27.22
2018-05-18T12:28:54.813Z,27.21
2018-05-18T12:31:25.558Z,27.26
2018-05-18T12:33:56.085Z,27.28
2018-05-18T12:36:26.581Z,27.48
2018-05-18T12:38:57.596Z,27.88
2018-05-18T12:41:28.924Z,27.72
2018-05-18T12:44:01.753Z,28.18
2018-05-18T12:46:34.209Z,28.54
2018-05-18T12:49:06.896Z,29.04
2018-05-18T12:51:39.230Z,29.16
2018-05-18T12:54:11.482Z,29.24
2018-05-18T12:56:43.782Z,29.19
2018-05-18T12:59:16.130Z,28.95
2018-05-18T13:01:46.601Z,28.65
2018-05-18T13:04:19.860Z,28.28
2018-05-18T13:06:53.709Z,28.19
2018-05-18T13:09:26.032Z,28.31
2018-05-18T13:11:57.643Z,28.93
2018-05-18T13:14:29.413Z,29.33
2018-05-18T13:17:00.377Z,29.34
2018-05-18T13:19:30.875Z,28.89
2018-05-18T13:22:01.840Z,29.01
2018-05-18T13:24:34.145Z,29.33
2018-05-18T13:27:06.403Z,29.59
2018-05-18T13:29:36.899Z,29.92
2018-05-18T13:32:07.423Z,29.99
2018-05-18T13:34:39.174Z,30.23
2018-05-18T13:37:11.406Z,30.19
2018-05-18T13:39:43.739Z,30.02
2018-05-18T13:42:14.204Z,30.64
2018-05-18T13:44:46.551Z,29.84
2018-05-18T13:47:19.851Z,29.51
2018-05-18T13:49:50.581Z,29.23
2018-05-18T13:52:23.690Z,28.75
2018-05-18T13:54:56.099Z,28.53
2018-05-18T13:57:26.663Z,28.29
2018-05-18T13:59:59.304Z,28.05
2018-05-18T14:02:31.654Z,28.02
2018-05-18T14:05:02.434Z,28.03
2018-05-18T14:07:34.746Z,27.90
2018-05-18T14:10:06.992Z,27.75
2018-05-18T14:12:39.281Z,27.39
2018-05-18T14:15:09.714Z,27.23
2018-05-18T14:17:40.273Z,27.17
2018-05-18T14:20:12.937Z,27.47
2018-05-18T14:22:45.283Z,27.54
2018-05-18T14:25:15.825Z,27.59
2018-05-18T14:27:46.409Z,27.57
2018-05-18T14:30:16.965Z,27.74
2018-05-18T14:32:47.461Z,27.87
2018-05-18T14:35:18.688Z,27.92
2018-05-18T14:37:51.022Z,27.39
2018-05-18T14:40:23.639Z,27.35
2018-05-18T14:42:54.227Z,27.24
2018-05-18T14:45:24.697Z,27.25
2018-05-18T14:47:55.236Z,27.10
2018-05-18T14:50:27.501Z,27.31
2018-05-18T14:52:58.185Z,27.44
2018-05-18T14:55:28.844Z,27.31
2018-05-18T14:57:59.889Z,27.14
2018-05-18T15:00:30.346Z,27.12
